createdAt,value
2022-12-22T00:02:10.832Z,12.60
2022-12-22T00:05:02.033Z,12.60
2022-12-22T00:07:47.396Z,12.70
2022-12-22T00:10:33.235Z,12.60
2022-12-22T00:13:19.074Z,12.70
2022-12-22T00:16:05.096Z,12.70
2022-12-22T00:18:53.564Z,12.80
2022-12-22T00:21:39.383Z,12.80
2022-12-22T00:24:25.070Z,12.80
2022-12-22T00:27:11.054Z,12.80
2022-12-22T00:30:01.736Z,12.90
2022-12-22T00:32:54.210Z,12.90
2022-12-22T00:35:44.160Z,12.90
2022-12-22T00:38:35.693Z,12.90
2022-12-22T00:41:22.382Z,12.90
2022-12-22T00:44:08.701Z,13.00
2022-12-22T00:47:00.128Z,13.00
2022-12-22T00:49:48.395Z,13.00
2022-12-22T00:52:36.752Z,13.00
2022-12-22T00:55:38.590Z,13.00
2022-12-22T00:58:34.025Z,13.00
2022-12-22T01:01:20.034Z,13.10
2022-12-22T01:04:05.601Z,13.10
2022-12-22T01:06:55.005Z,13.10
2022-12-22T01:09:41.898Z,13.10
2022-12-22T01:12:44.066Z,13.20
2022-12-22T01:15:34.419Z,13.10
2022-12-22T01:18:20.197Z,13.20
2022-12-22T01:21:05.926Z,13.20
2022-12-22T01:23:52.092Z,13.20
2022-12-22T01:26:38.207Z,13.20
2022-12-22T01:29:23.881Z,13.20
2022-12-22T01:32:09.899Z,13.20
2022-12-22T01:34:55.715Z,13.20
2022-12-22T01:37:41.841Z,13.20
2022-12-22T01:40:38.552Z,13.20
2022-12-22T01:43:45.849Z,13.20
2022-12-22T01:47:02.604Z,13.20
2022-12-22T01:50:00.939Z,13.20
2022-12-22T01:52:53.905Z,13.20
2022-12-22T01:55:43.370Z,13.20
2022-12-22T01:58:57.889Z,13.20
2022-12-22T02:01:44.026Z,13.20
2022-12-22T02:04:30.011Z,13.20
2022-12-22T02:07:30.523Z,13.20
2022-12-22T02:10:54.386Z,13.20
2022-12-22T02:14:04.592Z,13.20
2022-12-22T02:17:03.559Z,13.20
2022-12-22T02:20:29.008Z,13.20
2022-12-22T02:23:57.137Z,13.20
2022-12-22T02:26:55.251Z,13.20
2022-12-22T02:29:56.076Z,13.20
2022-12-22T02:32:45.638Z,13.20
2022-12-22T02:35:35.565Z,13.20
2022-12-22T02:39:12.412Z,13.20
2022-12-22T02:42:33.331Z,13.20
2022-12-22T02:45:49.908Z,13.30
2022-12-22T02:48:50.939Z,13.30
2022-12-22T02:51:44.623Z,13.30
2022-12-22T02:54:35.383Z,13.30
2022-12-22T02:57:27.467Z,13.30
2022-12-22T03:00:13.574Z,13.30
2022-12-22T03:02:59.913Z,13.30
2022-12-22T03:05:46.109Z,13.30
2022-12-22T03:08:31.995Z,13.30
2022-12-22T03:11:17.966Z,13.30
2022-12-22T03:14:03.884Z,13.30
2022-12-22T03:16:49.837Z,13.30
2022-12-22T03:19:35.610Z,13.30
2022-12-22T03:22:21.594Z,13.30
2022-12-22T03:25:07.259Z,13.30
2022-12-22T03:27:34.376Z,13.30
2022-12-22T03:30:01.576Z,13.30
2022-12-22T03:32:28.679Z,13.30
2022-12-22T03:34:55.857Z,13.30
2022-12-22T03:37:23.114Z,13.30
2022-12-22T03:39:50.395Z,13.30
2022-12-22T03:42:36.277Z,13.30
2022-12-22T03:45:22.371Z,13.30
2022-12-22T03:47:49.378Z,13.30
2022-12-22T03:50:16.615Z,13.30
2022-12-22T03:52:43.799Z,13.30
2022-12-22T03:55:10.959Z,13.30
2022-12-22T03:57:38.085Z,13.30
2022-12-22T04:00:08.275Z,13.30
2022-12-22T04:02:35.566Z,13.30
2022-12-22T04:05:03.027Z,13.30
2022-12-22T04:07:30.297Z,13.30
2022-12-22T04:10:15.888Z,13.30
2022-12-22T04:12:55.057Z,13.30
2022-12-22T04:15:33.071Z,13.30
2022-12-22T04:18:00.481Z,13.30
2022-12-22T04:20:28.838Z,13.30
2022-12-22T04:22:57.239Z,13.30
2022-12-22T04:25:25.639Z,13.30
2022-12-22T04:27:53.183Z,13.30
2022-12-22T04:30:20.695Z,13.30
2022-12-22T04:32:47.930Z,13.30
2022-12-22T04:35:15.064Z,13.30
2022-12-22T04:37:42.251Z,13.30
2022-12-22T04:40:09.727Z,13.20
2022-12-22T04:42:36.882Z,13.30
2022-12-22T04:45:04.549Z,13.20
2022-12-22T04:47:31.799Z,13.20
2022-12-22T04:49:59.770Z,13.20
2022-12-22T04:52:27.206Z,13.20
2022-12-22T04:54:54.387Z,13.20
2022-12-22T04:57:21.709Z,13.20
2022-12-22T04:59:48.944Z,13.20
2022-12-22T05:02:16.184Z,13.20
2022-12-22T05:04:43.644Z,13.20
2022-12-22T05:07:10.747Z,13.20
2022-12-22T05:09:37.904Z,13.20
2022-12-22T05:12:25.577Z,13.20
2022-12-22T05:14:53.276Z,13.20
2022-12-22T05:17:20.693Z,13.20
2022-12-22T05:19:48.060Z,13.20
2022-12-22T05:22:15.227Z,13.20
2022-12-22T05:24:42.347Z,13.20
2022-12-22T05:27:14.367Z,13.20
2022-12-22T05:29:41.575Z,13.20
2022-12-22T05:32:08.767Z,13.20
2022-12-22T05:34:36.026Z,13.20
2022-12-22T05:37:03.262Z,13.20
2022-12-22T05:39:30.338Z,13.20
2022-12-22T05:41:57.406Z,13.20
2022-12-22T05:44:24.541Z,13.10
2022-12-22T05:46:52.533Z,13.20
2022-12-22T05:49:21.027Z,13.10
2022-12-22T05:51:48.710Z,13.10
2022-12-22T05:54:16.164Z,13.10
2022-12-22T05:56:46.173Z,13.10
2022-12-22T05:59:13.533Z,13.00
2022-12-22T06:01:40.729Z,13.00
2022-12-22T06:04:08.031Z,13.00
2022-12-22T06:06:35.365Z,12.90
2022-12-22T06:09:02.722Z,12.90
2022-12-22T06:11:29.896Z,12.80
2022-12-22T06:13:57.018Z,12.80
2022-12-22T06:16:24.447Z,12.70
2022-12-22T06:18:51.834Z,12.70
2022-12-22T06:21:19.000Z,12.60
2022-12-22T06:23:46.269Z,12.60
2022-12-22T06:26:13.715Z,12.50
2022-12-22T06:28:41.031Z,12.50
2022-12-22T06:31:08.250Z,12.40
2022-12-22T06:33:35.474Z,12.40
2022-12-22T06:36:09.254Z,12.40
2022-12-22T06:38:36.441Z,12.40
2022-12-22T06:41:06.223Z,12.40
2022-12-22T06:43:36.114Z,12.40
2022-12-22T06:46:03.731Z,12.40
2022-12-22T06:48:30.871Z,12.30
2022-12-22T06:50:59.932Z,12.30
2022-12-22T06:53:27.584Z,12.30
2022-12-22T06:55:54.831Z,12.30
2022-12-22T06:59:31.194Z,12.20
2022-12-22T07:01:59.531Z,12.20
2022-12-22T07:04:29.925Z,12.20
2022-12-22T07:06:57.372Z,12.20
2022-12-22T07:09:29.148Z,12.20
2022-12-22T07:11:56.354Z,12.30
2022-12-22T07:14:29.661Z,12.30
2022-12-22T07:16:56.957Z,12.30
2022-12-22T07:19:32.581Z,12.30
2022-12-22T07:21:59.804Z,12.40
2022-12-22T07:24:27.382Z,12.40
2022-12-22T07:26:54.745Z,12.40
2022-12-22T07:29:22.427Z,12.50
2022-12-22T07:31:49.778Z,12.50
2022-12-22T07:34:16.965Z,12.50
2022-12-22T07:36:44.194Z,12.60
2022-12-22T07:39:13.032Z,12.60
2022-12-22T07:41:58.967Z,12.70
2022-12-22T07:44:26.483Z,12.60
2022-12-22T07:46:56.310Z,12.70
2022-12-22T07:49:42.050Z,12.70
2022-12-22T07:52:09.969Z,12.70
2022-12-22T07:54:41.822Z,12.70
2022-12-22T07:57:09.722Z,12.70
2022-12-22T07:59:36.949Z,12.70
2022-12-22T08:02:10.589Z,12.70
2022-12-22T08:04:38.040Z,12.70
2022-12-22T08:07:07.898Z,12.70
2022-12-22T08:09:37.500Z,12.70
2022-12-22T08:12:05.269Z,12.70
2022-12-22T08:14:32.398Z,12.70
2022-12-22T08:16:59.558Z,12.80
2022-12-22T08:19:26.951Z,12.80
2022-12-22T08:21:54.459Z,12.80
2022-12-22T08:24:22.387Z,12.80
2022-12-22T08:26:55.666Z,12.80
2022-12-22T08:29:32.626Z,12.80
2022-12-22T08:32:01.696Z,12.80
2022-12-22T08:34:29.493Z,12.80
2022-12-22T08:37:01.234Z,12.80
2022-12-22T08:39:33.090Z,12.80
2022-12-22T08:42:04.033Z,12.80
2022-12-22T08:44:31.586Z,12.80
2022-12-22T08:47:00.271Z,12.80
2022-12-22T08:49:28.207Z,12.90
2022-12-22T08:51:55.705Z,12.90
2022-12-22T08:54:26.396Z,12.90
2022-12-22T08:56:53.713Z,12.90
2022-12-22T08:59:21.027Z,13.00
2022-12-22T09:01:51.171Z,13.00
2022-12-22T09:04:24.991Z,13.10
2022-12-22T09:06:53.872Z,13.10
2022-12-22T09:09:21.709Z,13.20
2022-12-22T09:11:49.272Z,13.20
2022-12-22T09:14:17.057Z,13.30
2022-12-22T09:16:45.516Z,13.30
2022-12-22T09:19:12.857Z,13.40
2022-12-22T09:21:40.153Z,13.50
2022-12-22T09:24:08.029Z,13.50
2022-12-22T09:26:37.931Z,13.50
2022-12-22T09:29:05.852Z,13.50
2022-12-22T09:31:34.281Z,13.50
2022-12-22T09:38:11.134Z,13.40
2022-12-22T09:40:38.818Z,13.40
2022-12-22T09:43:06.463Z,13.40
2022-12-22T09:45:34.295Z,13.40
2022-12-22T09:48:02.465Z,13.40
2022-12-22T09:50:35.508Z,13.40
2022-12-22T09:53:06.695Z,13.30
2022-12-22T09:55:50.230Z,13.40
2022-12-22T09:58:28.949Z,13.30
2022-12-22T10:01:39.215Z,13.40
2022-12-22T10:04:49.610Z,13.40
2022-12-22T10:07:40.358Z,13.30
2022-12-22T10:10:25.643Z,13.20
2022-12-22T10:12:57.667Z,13.20
2022-12-22T10:15:26.226Z,13.20
2022-12-22T10:18:10.403Z,13.10
2022-12-22T10:20:40.056Z,13.10
2022-12-22T10:23:29.538Z,13.00
2022-12-22T10:29:05.065Z,13.00
2022-12-22T10:31:55.131Z,13.00
2022-12-22T10:34:22.581Z,12.90
2022-12-22T10:37:04.084Z,12.90
2022-12-22T10:39:35.646Z,12.90
2022-12-22T10:42:13.831Z,12.90
2022-12-22T10:44:49.974Z,12.80
2022-12-22T10:47:24.723Z,12.90
2022-12-22T10:56:36.532Z,12.90
2022-12-22T10:59:07.209Z,12.90
2022-12-22T11:02:49.613Z,12.90
2022-12-22T11:05:17.133Z,13.00
2022-12-22T11:07:50.010Z,13.00
2022-12-22T11:10:21.435Z,13.00
2022-12-22T11:13:27.850Z,13.00
2022-12-22T11:16:20.943Z,13.10
2022-12-22T11:19:04.056Z,13.10
2022-12-22T11:21:56.447Z,13.10
2022-12-22T11:24:45.154Z,13.20
2022-12-22T11:27:33.454Z,13.20
2022-12-22T11:30:20.893Z,13.20
2022-12-22T11:33:49.591Z,13.30
2022-12-22T11:36:46.884Z,13.30
2022-12-22T11:40:05.371Z,13.30
2022-12-22T11:43:11.643Z,13.30
2022-12-22T11:45:51.865Z,13.30
2022-12-22T11:48:51.049Z,13.30
2022-12-22T11:51:50.039Z,13.20
2022-12-22T11:55:03.013Z,13.20
2022-12-22T11:58:23.125Z,13.20
2022-12-22T12:01:25.624Z,13.20
2022-12-22T12:04:48.434Z,13.20
2022-12-22T12:07:48.558Z,13.30
2022-12-22T12:14:57.945Z,13.30
2022-12-22T12:18:04.820Z,13.40
2022-12-22T12:21:09.352Z,13.50
2022-12-22T12:23:57.804Z,13.60
2022-12-22T12:26:31.496Z,13.60
2022-12-22T12:29:20.365Z,13.70
2022-12-22T12:31:59.866Z,13.70
2022-12-22T12:34:31.800Z,13.70
2022-12-22T12:37:39.088Z,13.80
2022-12-22T12:40:29.196Z,13.80
2022-12-22T12:42:58.978Z,13.90
2022-12-22T12:45:37.462Z,13.90
2022-12-22T12:48:26.477Z,14.00
2022-12-22T12:51:00.337Z,14.00
2022-12-22T12:53:30.567Z,14.00
2022-12-22T12:56:11.719Z,14.00
2022-12-22T12:58:39.391Z,14.10
2022-12-22T13:01:31.965Z,14.10
2022-12-22T13:04:06.176Z,14.10
2022-12-22T13:06:56.008Z,14.10
2022-12-22T13:09:53.562Z,14.10
2022-12-22T13:12:41.486Z,14.00
2022-12-22T13:15:40.074Z,14.00
2022-12-22T13:18:25.623Z,14.00
2022-12-22T13:21:51.810Z,14.10
2022-12-22T13:24:30.605Z,14.10
2022-12-22T13:27:06.991Z,14.10
2022-12-22T13:29:42.928Z,14.10
2022-12-22T13:32:36.075Z,14.10
2022-12-22T13:35:33.897Z,14.00
2022-12-22T13:38:02.530Z,14.00
2022-12-22T13:41:47.975Z,14.00
2022-12-22T13:44:29.659Z,14.00
2022-12-22T13:47:07.891Z,14.00
2022-12-22T13:50:07.319Z,14.00
2022-12-22T13:52:24.022Z,14.10
2022-12-22T13:54:51.745Z,14.10
2022-12-22T13:57:23.215Z,14.10
2022-12-22T13:59:52.548Z,14.10
2022-12-22T14:06:44.954Z,14.10
2022-12-22T14:09:25.812Z,14.00
2022-12-22T14:12:03.003Z,13.90
2022-12-22T14:14:38.273Z,13.90
2022-12-22T14:17:34.977Z,13.80
2022-12-22T14:20:28.521Z,13.70
2022-12-22T14:23:18.180Z,13.70
2022-12-22T14:25:51.057Z,13.70
2022-12-22T14:28:53.591Z,13.60
2022-12-22T14:31:21.717Z,13.60
2022-12-22T14:34:05.740Z,13.60
2022-12-22T14:36:41.781Z,13.60
2022-12-22T14:39:11.001Z,13.50
2022-12-22T14:41:54.129Z,13.50
2022-12-22T14:44:28.296Z,13.50
2022-12-22T14:47:16.363Z,13.50
2022-12-22T14:50:25.054Z,13.40
2022-12-22T14:52:59.916Z,13.40
2022-12-22T14:55:38.329Z,13.40
2022-12-22T14:58:10.220Z,13.40
2022-12-22T15:00:44.115Z,13.30
2022-12-22T15:03:38.239Z,13.30
2022-12-22T15:06:27.446Z,13.30
2022-12-22T15:09:11.985Z,13.20
2022-12-22T15:12:04.106Z,13.20
2022-12-22T15:14:38.876Z,13.20
2022-12-22T15:17:18.304Z,13.10
2022-12-22T15:19:48.620Z,13.10
2022-12-22T15:22:16.128Z,13.00
2022-12-22T15:24:43.626Z,13.00
2022-12-22T15:27:10.820Z,13.00
2022-12-22T15:29:41.094Z,12.90
2022-12-22T15:32:15.182Z,12.90
2022-12-22T15:34:45.942Z,12.90
2022-12-22T15:37:13.583Z,12.90
2022-12-22T15:39:40.908Z,12.80
2022-12-22T15:42:08.209Z,12.80
2022-12-22T15:44:38.960Z,12.80
2022-12-22T15:48:23.485Z,12.70
2022-12-22T15:50:52.626Z,12.70
2022-12-22T15:53:20.977Z,12.60
2022-12-22T15:56:00.641Z,12.60
2022-12-22T15:58:36.483Z,12.60
2022-12-22T16:01:03.775Z,12.50
2022-12-22T16:03:31.061Z,12.50
2022-12-22T16:05:58.833Z,12.50
2022-12-22T16:08:41.017Z,12.50
2022-12-22T16:11:20.818Z,12.40
2022-12-22T16:13:50.397Z,12.40
2022-12-22T16:16:18.359Z,12.40
2022-12-22T16:18:45.739Z,12.40
2022-12-22T16:21:22.259Z,12.40
2022-12-22T16:23:51.309Z,12.30
2022-12-22T16:26:21.438Z,12.30
2022-12-22T16:28:50.630Z,12.30
2022-12-22T16:31:26.527Z,12.30
2022-12-22T16:33:53.940Z,12.30
2022-12-22T16:36:21.146Z,12.30
2022-12-22T16:38:48.555Z,12.30
2022-12-22T16:41:25.443Z,12.30
2022-12-22T16:46:41.547Z,12.30
2022-12-22T16:53:18.547Z,12.30
2022-12-22T16:55:45.813Z,12.30
2022-12-22T16:58:14.278Z,12.30
2022-12-22T17:00:44.783Z,12.30
2022-12-22T17:03:28.426Z,12.30
2022-12-22T17:06:01.076Z,12.30
2022-12-22T17:08:36.193Z,12.30
2022-12-22T17:11:11.173Z,12.30
2022-12-22T17:13:39.380Z,12.30
2022-12-22T17:16:07.101Z,12.30
2022-12-22T17:18:38.212Z,12.30
2022-12-22T17:21:06.024Z,12.40
2022-12-22T17:23:39.590Z,12.40
2022-12-22T17:26:10.412Z,12.40
2022-12-22T17:28:39.194Z,12.50
2022-12-22T17:31:25.307Z,12.50
2022-12-22T17:33:52.956Z,12.50
2022-12-22T17:36:33.931Z,12.60
2022-12-22T17:39:03.241Z,12.60
2022-12-22T17:41:30.577Z,12.60
2022-12-22T17:43:58.071Z,12.70
2022-12-22T17:46:25.759Z,12.70
2022-12-22T17:48:53.149Z,12.70
2022-12-22T17:51:29.500Z,12.70
2022-12-22T17:53:59.145Z,12.80
2022-12-22T17:56:31.775Z,12.80
2022-12-22T17:58:59.127Z,12.80
2022-12-22T18:01:32.467Z,12.80
2022-12-22T18:04:00.189Z,12.90
2022-12-22T18:06:34.827Z,12.90
2022-12-22T18:09:03.166Z,12.90
2022-12-22T18:11:30.686Z,12.90
2022-12-22T18:14:00.511Z,12.90
2022-12-22T18:16:28.027Z,13.00
2022-12-22T18:18:55.435Z,13.00
2022-12-22T18:21:25.744Z,13.00
2022-12-22T18:23:53.199Z,13.00
2022-12-22T18:26:30.599Z,13.00
2022-12-22T18:29:01.968Z,13.10
2022-12-22T18:31:29.243Z,13.10
2022-12-22T18:33:56.922Z,13.10
2022-12-22T18:36:33.557Z,13.10
2022-12-22T18:39:02.634Z,13.10
2022-12-22T18:41:37.428Z,13.10
2022-12-22T18:44:04.842Z,13.10
2022-12-22T18:46:32.417Z,13.20
2022-12-22T18:49:05.335Z,13.20
2022-12-22T18:51:32.946Z,13.20
2022-12-22T18:54:02.188Z,13.20
2022-12-22T18:56:29.679Z,13.20
2022-12-22T18:58:57.086Z,13.20
2022-12-22T19:01:27.384Z,13.20
2022-12-22T19:03:58.984Z,13.30
2022-12-22T19:06:27.440Z,13.30
2022-12-22T19:08:54.663Z,13.30
2022-12-22T19:11:29.076Z,13.30
2022-12-22T19:13:56.503Z,13.30
2022-12-22T19:16:27.126Z,13.40
2022-12-22T19:18:54.938Z,13.40
2022-12-22T19:21:22.153Z,13.40
2022-12-22T19:23:49.726Z,13.40
2022-12-22T19:26:27.886Z,13.40
2022-12-22T19:29:03.880Z,13.40
2022-12-22T19:31:36.231Z,13.50
2022-12-22T19:34:10.259Z,13.50
2022-12-22T19:36:40.958Z,13.50
2022-12-22T19:43:20.300Z,13.50
2022-12-22T19:45:52.971Z,13.50
2022-12-22T19:48:24.799Z,13.60
2022-12-22T19:50:54.158Z,13.60
2022-12-22T19:53:22.075Z,13.60
2022-12-22T19:55:56.088Z,13.60
2022-12-22T19:58:30.855Z,13.60
2022-12-22T20:00:58.989Z,13.60
2022-12-22T20:03:26.833Z,13.60
2022-12-22T20:05:54.282Z,13.60
2022-12-22T20:08:21.726Z,13.60
2022-12-22T20:10:58.473Z,13.60
2022-12-22T20:13:32.992Z,13.70
2022-12-22T20:16:00.376Z,13.70
2022-12-22T20:18:30.552Z,13.70
2022-12-22T20:21:06.628Z,13.70
2022-12-22T20:23:39.199Z,13.70
2022-12-22T20:26:15.918Z,13.70
2022-12-22T20:28:43.208Z,13.70
2022-12-22T20:31:15.443Z,13.70
2022-12-22T20:33:42.979Z,13.80
2022-12-22T20:36:26.493Z,13.80
2022-12-22T20:38:57.965Z,13.80
2022-12-22T20:41:28.820Z,13.80
2022-12-22T20:43:56.183Z,13.80
2022-12-22T20:46:30.323Z,13.80
2022-12-22T20:49:04.598Z,13.80
2022-12-22T20:51:34.189Z,13.80
2022-12-22T20:54:01.757Z,13.80
2022-12-22T20:56:33.725Z,13.80
2022-12-22T20:59:14.531Z,13.80
2022-12-22T21:01:41.959Z,13.80
2022-12-22T21:04:09.713Z,13.80
2022-12-22T21:06:53.080Z,13.80
2022-12-22T21:09:20.632Z,13.80
2022-12-22T21:11:48.250Z,13.80
2022-12-22T21:14:15.986Z,13.80
2022-12-22T21:16:43.871Z,13.80
2022-12-22T21:19:18.715Z,13.80
2022-12-22T21:21:46.794Z,13.80
2022-12-22T21:24:14.300Z,13.80
2022-12-22T21:26:47.394Z,13.80
2022-12-22T21:29:23.633Z,13.80
2022-12-22T21:31:51.305Z,13.80
2022-12-22T21:34:18.951Z,13.80
2022-12-22T21:36:51.787Z,13.80
2022-12-22T21:39:29.974Z,13.80
2022-12-22T21:42:00.212Z,13.80
2022-12-22T21:44:29.400Z,13.80
2022-12-22T21:46:58.151Z,13.80
2022-12-22T21:49:32.260Z,13.80
2022-12-22T21:52:32.614Z,13.80
2022-12-22T21:54:59.888Z,13.80
2022-12-22T21:57:28.803Z,13.80
2022-12-22T21:59:56.115Z,13.80
2022-12-22T22:02:23.656Z,13.80
2022-12-22T22:04:54.976Z,13.70
2022-12-22T22:07:23.243Z,13.70
2022-12-22T22:09:50.414Z,13.70
2022-12-22T22:12:32.960Z,13.70
2022-12-22T22:15:02.120Z,13.70
2022-12-22T22:17:29.952Z,13.70
2022-12-22T22:19:58.523Z,13.60
2022-12-22T22:22:25.855Z,13.60
2022-12-22T22:24:53.110Z,13.60
2022-12-22T22:27:20.571Z,13.60
2022-12-22T22:29:47.937Z,13.60
2022-12-22T22:32:15.234Z,13.60
2022-12-22T22:34:42.751Z,13.60
2022-12-22T22:37:10.180Z,13.50
2022-12-22T22:39:37.591Z,13.50
2022-12-22T22:42:05.386Z,13.50
2022-12-22T22:44:32.625Z,13.40
2022-12-22T22:47:00.389Z,13.40
2022-12-22T22:49:28.793Z,13.40
2022-12-22T22:52:01.402Z,13.40
2022-12-22T22:54:32.942Z,13.40
2022-12-22T22:57:00.358Z,13.30
2022-12-22T22:59:27.985Z,13.30
2022-12-22T23:01:56.162Z,13.30
2022-12-22T23:04:23.646Z,13.30
2022-12-22T23:06:51.133Z,13.30
2022-12-22T23:09:18.636Z,13.40
2022-12-22T23:11:45.942Z,13.40
2022-12-22T23:14:13.203Z,13.40
2022-12-22T23:16:40.807Z,13.40
2022-12-22T23:19:08.381Z,13.40
2022-12-22T23:21:35.744Z,13.40
2022-12-22T23:24:03.109Z,13.40
2022-12-22T23:26:31.746Z,13.50
2022-12-22T23:29:03.272Z,13.50
2022-12-22T23:35:42.983Z,13.50
2022-12-22T23:38:10.798Z,13.50
2022-12-22T23:40:54.169Z,13.40
2022-12-22T23:43:22.911Z,13.50
2022-12-22T23:45:52.342Z,13.50
2022-12-22T23:48:19.637Z,13.40
2022-12-22T23:50:47.904Z,13.40
2022-12-22T23:53:16.444Z,13.40
2022-12-22T23:55:50.621Z,13.40
2022-12-22T23:58:18.354Z,13.40
